sensor_id;sensor_type;location;lat;lon;timestamp;pressure;altitude;pressure_sealevel;temperature;humidity
51229;BME280;37304;52.216;6.874;2023-04-25T00:01:54;100620.88;;;6.24;100.00
51229;BME280;37304;52.216;6.874;2023-04-25T00:06:54;100625.19;;;6.21;100.00
51229;BME280;37304;52.216;6.874;2023-04-25T00:11:55;100635.50;;;6.21;100.00
51229;BME280;37304;52.216;6.874;2023-04-25T00:16:55;100639.81;;;6.16;100.00
51229;BME280;37304;52.216;6.874;2023-04-25T00:21:56;100638.09;;;6.11;100.00
51229;BME280;37304;52.216;6.874;2023-04-25T00:26:56;100638.09;;;5.96;100.00
51229;BME280;37304;52.216;6.874;2023-04-25T00:31:56;100651.84;;;5.89;100.00
51229;BME280;37304;52.216;6.874;2023-04-25T00:36:57;100644.09;;;5.90;100.00
51229;BME280;37304;52.216;6.874;2023-04-25T00:41:58;100639.81;;;5.91;100.00
51229;BME280;37304;52.216;6.874;2023-04-25T00:46:59;100650.97;;;5.85;100.00
51229;BME280;37304;52.216;6.874;2023-04-25T00:52:00;100644.97;;;5.81;100.00
51229;BME280;37304;52.216;6.874;2023-04-25T00:57:01;100647.53;;;5.77;100.00
51229;BME280;37304;52.216;6.874;2023-04-25T01:02:01;100658.72;;;5.73;100.00
51229;BME280;37304;52.216;6.874;2023-04-25T01:07:02;100650.13;;;5.75;100.00
51229;BME280;37304;52.216;6.874;2023-04-25T01:12:03;100656.13;;;5.82;100.00
51229;BME280;37304;52.216;6.874;2023-04-25T01:17:03;100650.13;;;5.81;100.00
51229;BME280;37304;52.216;6.874;2023-04-25T01:22:04;100649.28;;;5.82;100.00
51229;BME280;37304;52.216;6.874;2023-04-25T01:27:04;100660.44;;;5.74;100.00
51229;BME280;37304;52.216;6.874;2023-04-25T01:32:06;100666.47;;;5.73;100.00
51229;BME280;37304;52.216;6.874;2023-04-25T01:37:07;100669.06;;;5.71;100.00
51229;BME280;37304;52.216;6.874;2023-04-25T01:42:07;100662.19;;;5.64;100.00
51229;BME280;37304;52.216;6.874;2023-04-25T01:47:07;100663.03;;;5.74;100.00
51229;BME280;37304;52.216;6.874;2023-04-25T01:52:08;100665.59;;;5.61;100.00
51229;BME280;37304;52.216;6.874;2023-04-25T01:57:08;100677.59;;;5.51;100.00
51229;BME280;37304;52.216;6.874;2023-04-25T02:02:08;100674.16;;;5.56;100.00
51229;BME280;37304;52.216;6.874;2023-04-25T02:07:09;100677.63;;;5.50;100.00
51229;BME280;37304;52.216;6.874;2023-04-25T02:12:09;100670.75;;;5.55;100.00
51229;BME280;37304;52.216;6.874;2023-04-25T02:17:10;100684.47;;;5.56;100.00
51229;BME280;37304;52.216;6.874;2023-04-25T02:22:12;100692.22;;;5.52;100.00
51229;BME280;37304;52.216;6.874;2023-04-25T02:27:13;100698.22;;;5.51;100.00
51229;BME280;37304;52.216;6.874;2023-04-25T02:32:13;100703.38;;;5.48;100.00
51229;BME280;37304;52.216;6.874;2023-04-25T02:37:14;100709.38;;;5.44;100.00
51229;BME280;37304;52.216;6.874;2023-04-25T02:42:14;100706.81;;;5.47;100.00
51229;BME280;37304;52.216;6.874;2023-04-25T02:47:14;100714.53;;;5.44;100.00
51229;BME280;37304;52.216;6.874;2023-04-25T02:52:15;100723.13;;;5.43;100.00
51229;BME280;37304;52.216;6.874;2023-04-25T02:57:15;100720.53;;;5.40;100.00
51229;BME280;37304;52.216;6.874;2023-04-25T03:02:15;100728.25;;;5.34;100.00
51229;BME280;37304;52.216;6.874;2023-04-25T03:07:16;100730.81;;;5.29;100.00
51229;BME280;37304;52.216;6.874;2023-04-25T03:12:16;100729.09;;;5.28;100.00
51229;BME280;37304;52.216;6.874;2023-04-25T03:17:16;100729.06;;;5.17;100.00
51229;BME280;37304;52.216;6.874;2023-04-25T03:22:17;100743.63;;;5.09;100.00
51229;BME280;37304;52.216;6.874;2023-04-25T03:27:17;100740.16;;;5.05;100.00
51229;BME280;37304;52.216;6.874;2023-04-25T03:32:18;100734.19;;;5.08;100.00
51229;BME280;37304;52.216;6.874;2023-04-25T03:37:18;100733.34;;;5.14;100.00
51229;BME280;37304;52.216;6.874;2023-04-25T03:42:18;100729.03;;;5.09;100.00
51229;BME280;37304;52.216;6.874;2023-04-25T03:47:19;100739.34;;;5.08;100.00
51229;BME280;37304;52.216;6.874;2023-04-25T03:52:20;100747.91;;;5.07;100.00
51229;BME280;37304;52.216;6.874;2023-04-25T03:57:20;100750.47;;;5.01;100.00
51229;BME280;37304;52.216;6.874;2023-04-25T04:02:22;100761.63;;;5.00;100.00
51229;BME280;37304;52.216;6.874;2023-04-25T04:07:22;100759.84;;;4.91;100.00
51229;BME280;37304;52.216;6.874;2023-04-25T04:12:22;100765.84;;;4.90;100.00
51229;BME280;37304;52.216;6.874;2023-04-25T04:17:23;100766.75;;;4.95;100.00
51229;BME280;37304;52.216;6.874;2023-04-25T04:22:24;100768.47;;;4.98;100.00
51229;BME280;37304;52.216;6.874;2023-04-25T04:27:24;100771.88;;;4.95;100.00
51229;BME280;37304;52.216;6.874;2023-04-25T04:32:25;100774.50;;;5.00;100.00
51229;BME280;37304;52.216;6.874;2023-04-25T04:37:25;100785.66;;;4.99;100.00
51229;BME280;37304;52.216;6.874;2023-04-25T04:42:25;100792.53;;;5.00;100.00
51229;BME280;37304;52.216;6.874;2023-04-25T04:47:26;100799.41;;;5.01;100.00
51229;BME280;37304;52.216;6.874;2023-04-25T04:52:31;100802.00;;;5.07;100.00
51229;BME280;37304;52.216;6.874;2023-04-25T04:57:31;100804.59;;;5.10;100.00
51229;BME280;37304;52.216;6.874;2023-04-25T05:02:33;100812.34;;;5.13;100.00
51229;BME280;37304;52.216;6.874;2023-04-25T05:07:33;100820.09;;;5.18;100.00
51229;BME280;37304;52.216;6.874;2023-04-25T05:12:34;100820.13;;;5.25;100.00
51229;BME280;37304;52.216;6.874;2023-04-25T05:17:36;100824.38;;;5.19;100.00
51229;BME280;37304;52.216;6.874;2023-04-25T05:22:36;100839.00;;;5.26;100.00
51229;BME280;37304;52.216;6.874;2023-04-25T05:27:37;100839.03;;;5.29;100.00
51229;BME280;37304;52.216;6.874;2023-04-25T05:32:37;100842.53;;;5.39;100.00
51229;BME280;37304;52.216;6.874;2023-04-25T05:37:38;100839.97;;;5.48;100.00
51229;BME280;37304;52.216;6.874;2023-04-25T05:42:38;100845.19;;;5.53;100.00
51229;BME280;37304;52.216;6.874;2023-04-25T05:47:38;100864.94;;;5.62;100.00
51229;BME280;37304;52.216;6.874;2023-04-25T05:52:39;100858.13;;;5.64;100.00
51229;BME280;37304;52.216;6.874;2023-04-25T05:57:40;100868.47;;;5.78;100.00
51229;BME280;37304;52.216;6.874;2023-04-25T06:02:41;100865.06;;;5.87;100.00
51229;BME280;37304;52.216;6.874;2023-04-25T06:07:42;100879.63;;;5.71;100.00
51229;BME280;37304;52.216;6.874;2023-04-25T06:12:44;100882.25;;;5.81;100.00
51229;BME280;37304;52.216;6.874;2023-04-25T06:17:44;100883.16;;;5.99;100.00
51229;BME280;37304;52.216;6.874;2023-04-25T06:22:44;100894.38;;;6.01;100.00
51229;BME280;37304;52.216;6.874;2023-04-25T06:27:45;100895.25;;;6.06;100.00
51229;BME280;37304;52.216;6.874;2023-04-25T06:32:45;100895.28;;;6.19;100.00
51229;BME280;37304;52.216;6.874;2023-04-25T06:37:46;100899.59;;;6.26;100.00
51229;BME280;37304;52.216;6.874;2023-04-25T06:42:46;100892.69;;;6.19;100.00
51229;BME280;37304;52.216;6.874;2023-04-25T06:47:47;100895.34;;;6.47;100.00
51229;BME280;37304;52.216;6.874;2023-04-25T06:52:47;100909.97;;;6.60;100.00
51229;BME280;37304;52.216;6.874;2023-04-25T06:57:47;100909.97;;;6.76;100.00
51229;BME280;37304;52.216;6.874;2023-04-25T07:02:48;100921.16;;;6.84;100.00
51229;BME280;37304;52.216;6.874;2023-04-25T07:07:48;100929.78;;;6.70;100.00
51229;BME280;37304;52.216;6.874;2023-04-25T07:12:48;100929.78;;;6.94;100.00
51229;BME280;37304;52.216;6.874;2023-04-25T07:17:49;100921.19;;;7.03;100.00
51229;BME280;37304;52.216;6.874;2023-04-25T07:22:49;100918.59;;;6.84;100.00
51229;BME280;37304;52.216;6.874;2023-04-25T07:27:50;100927.19;;;6.89;100.00
51229;BME280;37304;52.216;6.874;2023-04-25T07:32:50;100913.44;;;6.99;100.00
51229;BME280;37304;52.216;6.874;2023-04-25T07:37:51;100928.91;;;7.31;100.00
51229;BME280;37304;52.216;6.874;2023-04-25T07:42:51;100930.50;;;7.81;100.00
51229;BME280;37304;52.216;6.874;2023-04-25T07:47:52;100936.56;;;7.63;100.00
51229;BME280;37304;52.216;6.874;2023-04-25T07:52:52;100937.28;;;8.04;100.00
51229;BME280;37304;52.216;6.874;2023-04-25T07:57:53;100941.38;;;8.50;100.00
51229;BME280;37304;52.216;6.874;2023-04-25T08:02:53;100939.91;;;9.29;100.00
51229;BME280;37304;52.216;6.874;2023-04-25T08:07:53;100951.44;;;9.81;100.00
51229;BME280;37304;52.216;6.874;2023-04-25T08:12:54;100949.16;;;9.55;100.00
51229;BME280;37304;52.216;6.874;2023-04-25T08:17:54;100959.63;;;9.44;100.00
51229;BME280;37304;52.216;6.874;2023-04-25T08:22:54;100967.63;;;9.22;100.00
51229;BME280;37304;52.216;6.874;2023-04-25T08:27:55;100961.69;;;9.11;100.00
51229;BME280;37304;52.216;6.874;2023-04-25T08:32:56;100976.47;;;8.93;100.00
51229;BME280;37304;52.216;6.874;2023-04-25T08:37:56;100981.53;;;9.12;100.00
51229;BME280;37304;52.216;6.874;2023-04-25T08:42:57;100990.91;;;9.27;100.00
51229;BME280;37304;52.216;6.874;2023-04-25T08:47:58;100994.41;;;9.20;100.00
51229;BME280;37304;52.216;6.874;2023-04-25T08:53:04;100987.75;;;9.83;100.00
51229;BME280;37304;52.216;6.874;2023-04-25T08:58:04;100997.66;;;10.25;100.00
51229;BME280;37304;52.216;6.874;2023-04-25T09:03:05;101011.88;;;9.93;100.00
51229;BME280;37304;52.216;6.874;2023-04-25T09:08:06;101014.25;;;10.13;100.00
51229;BME280;37304;52.216;6.874;2023-04-25T09:13:11;101017.06;;;9.93;100.00
51229;BME280;37304;52.216;6.874;2023-04-25T09:18:25;101030.59;;;10.19;100.00
51229;BME280;37304;52.216;6.874;2023-04-25T09:23:26;101028.28;;;10.68;100.00
51229;BME280;37304;52.216;6.874;2023-04-25T09:28:26;101031.75;;;11.77;100.00
51229;BME280;37304;52.216;6.874;2023-04-25T09:33:29;101024.22;;;13.94;100.00
51229;BME280;37304;52.216;6.874;2023-04-25T09:38:32;101022.06;;;15.24;100.00
51229;BME280;37304;52.216;6.874;2023-04-25T09:43:33;101027.91;;;15.33;87.17
51229;BME280;37304;52.216;6.874;2023-04-25T09:48:33;101028.22;;;15.49;82.09
51229;BME280;37304;52.216;6.874;2023-04-25T09:53:38;101038.38;;;14.77;81.26
51229;BME280;37304;52.216;6.874;2023-04-25T09:58:40;101074.38;;;13.02;85.42
51229;BME280;37304;52.216;6.874;2023-04-25T10:03:40;101087.56;;;10.41;100.00
51229;BME280;37304;52.216;6.874;2023-04-25T10:08:43;101090.59;;;8.85;100.00
51229;BME280;37304;52.216;6.874;2023-04-25T10:13:44;101105.84;;;9.35;100.00
51229;BME280;37304;52.216;6.874;2023-04-25T10:18:45;101099.78;;;9.36;100.00
51229;BME280;37304;52.216;6.874;2023-04-25T10:23:46;101113.66;;;9.32;100.00
51229;BME280;37304;52.216;6.874;2023-04-25T10:28:55;101097.97;;;9.46;100.00
51229;BME280;37304;52.216;6.874;2023-04-25T10:33:55;101108.84;;;9.87;100.00
51229;BME280;37304;52.216;6.874;2023-04-25T10:38:56;101106.31;;;12.74;100.00
51229;BME280;37304;52.216;6.874;2023-04-25T10:44:04;101090.63;;;14.80;100.00
51229;BME280;37304;52.216;6.874;2023-04-25T10:49:04;101086.03;;;16.20;90.15
51229;BME280;37304;52.216;6.874;2023-04-25T10:54:09;101089.94;;;17.46;80.62
51229;BME280;37304;52.216;6.874;2023-04-25T10:59:13;101082.22;;;15.78;80.44
51229;BME280;37304;52.216;6.874;2023-04-25T11:04:22;101080.56;;;15.23;70.97
51229;BME280;37304;52.216;6.874;2023-04-25T11:09:24;101076.00;;;17.01;65.70
51229;BME280;37304;52.216;6.874;2023-04-25T11:14:27;101094.13;;;17.30;64.96
51229;BME280;37304;52.216;6.874;2023-04-25T11:19:29;101093.09;;;18.57;64.42
51229;BME280;37304;52.216;6.874;2023-04-25T11:24:30;101091.34;;;16.19;72.71
51229;BME280;37304;52.216;6.874;2023-04-25T11:29:32;101088.13;;;14.46;73.17
51229;BME280;37304;52.216;6.874;2023-04-25T11:34:34;101095.28;;;13.38;70.17
51229;BME280;37304;52.216;6.874;2023-04-25T11:39:34;101100.22;;;12.73;70.56
51229;BME280;37304;52.216;6.874;2023-04-25T11:44:37;101104.81;;;12.16;67.94
51229;BME280;37304;52.216;6.874;2023-04-25T11:49:40;101088.28;;;12.63;66.49
51229;BME280;37304;52.216;6.874;2023-04-25T11:54:44;101093.84;;;12.87;67.75
51229;BME280;37304;52.216;6.874;2023-04-25T11:59:44;101096.47;;;14.59;67.68
51229;BME280;37304;52.216;6.874;2023-04-25T12:04:45;101083.72;;;15.85;62.71
51229;BME280;37304;52.216;6.874;2023-04-25T12:09:51;101117.47;;;14.25;66.32
51229;BME280;37304;52.216;6.874;2023-04-25T12:14:51;101132.88;;;12.02;86.22
51229;BME280;37304;52.216;6.874;2023-04-25T12:19:52;101138.00;;;11.55;100.00
51229;BME280;37304;52.216;6.874;2023-04-25T12:24:52;101149.06;;;11.10;98.85
51229;BME280;37304;52.216;6.874;2023-04-25T12:29:55;101139.66;;;11.60;98.17
51229;BME280;37304;52.216;6.874;2023-04-25T12:34:56;101133.78;;;14.65;92.14
51229;BME280;37304;52.216;6.874;2023-04-25T12:39:57;101134.97;;;13.15;85.16
51229;BME280;37304;52.216;6.874;2023-04-25T12:44:57;101147.16;;;12.29;86.97
51229;BME280;37304;52.216;6.874;2023-04-25T12:49:57;101148.09;;;11.75;85.31
51229;BME280;37304;52.216;6.874;2023-04-25T12:54:58;101140.72;;;11.99;87.58
51229;BME280;37304;52.216;6.874;2023-04-25T12:59:58;101144.13;;;13.33;87.36
51229;BME280;37304;52.216;6.874;2023-04-25T13:04:58;101147.34;;;12.64;87.97
51229;BME280;37304;52.216;6.874;2023-04-25T13:09:59;101162.03;;;11.71;96.59
51229;BME280;37304;52.216;6.874;2023-04-25T13:14:59;101174.59;;;11.44;100.00
51229;BME280;37304;52.216;6.874;2023-04-25T13:20:00;101164.50;;;11.80;99.99
51229;BME280;37304;52.216;6.874;2023-04-25T13:25:00;101164.78;;;13.04;97.91
51229;BME280;37304;52.216;6.874;2023-04-25T13:30:00;101154.75;;;13.64;84.52
51229;BME280;37304;52.216;6.874;2023-04-25T13:35:08;101166.03;;;13.65;73.61
51229;BME280;37304;52.216;6.874;2023-04-25T13:40:10;101162.22;;;13.40;69.41
51229;BME280;37304;52.216;6.874;2023-04-25T13:45:11;101162.81;;;14.23;68.35
51229;BME280;37304;52.216;6.874;2023-04-25T13:50:15;101149.94;;;14.48;64.85
51229;BME280;37304;52.216;6.874;2023-04-25T13:55:16;101164.94;;;14.41;67.89
51229;BME280;37304;52.216;6.874;2023-04-25T14:00:17;101164.25;;;14.66;69.22
51229;BME280;37304;52.216;6.874;2023-04-25T14:05:17;101175.00;;;13.53;73.69
51229;BME280;37304;52.216;6.874;2023-04-25T14:10:20;101178.31;;;13.22;71.13
51229;BME280;37304;52.216;6.874;2023-04-25T14:15:21;101184.47;;;12.31;74.84
51229;BME280;37304;52.216;6.874;2023-04-25T14:20:21;101185.84;;;12.51;75.17
51229;BME280;37304;52.216;6.874;2023-04-25T14:25:24;101179.97;;;12.41;77.74
51229;BME280;37304;52.216;6.874;2023-04-25T14:30:24;101179.47;;;13.08;77.96
51229;BME280;37304;52.216;6.874;2023-04-25T14:35:25;101183.09;;;13.78;70.17
51229;BME280;37304;52.216;6.874;2023-04-25T14:40:25;101185.78;;;13.77;61.63
51229;BME280;37304;52.216;6.874;2023-04-25T14:45:26;101191.19;;;13.69;60.85
51229;BME280;37304;52.216;6.874;2023-04-25T14:50:26;101183.16;;;13.37;58.39
51229;BME280;37304;52.216;6.874;2023-04-25T14:55:27;101188.53;;;13.71;62.35
51229;BME280;37304;52.216;6.874;2023-04-25T15:00:28;101183.25;;;12.93;59.49
51229;BME280;37304;52.216;6.874;2023-04-25T15:05:28;101191.31;;;11.85;65.39
51229;BME280;37304;52.216;6.874;2023-04-25T15:10:28;101232.09;;;10.52;81.12
51229;BME280;37304;52.216;6.874;2023-04-25T15:15:29;101246.66;;;9.51;100.00
51229;BME280;37304;52.216;6.874;2023-04-25T15:20:29;101265.06;;;8.89;100.00
51229;BME280;37304;52.216;6.874;2023-04-25T15:25:30;101253.94;;;8.33;100.00
51229;BME280;37304;52.216;6.874;2023-04-25T15:30:30;101235.81;;;8.23;100.00
51229;BME280;37304;52.216;6.874;2023-04-25T15:35:31;101248.69;;;8.88;100.00
51229;BME280;37304;52.216;6.874;2023-04-25T15:40:31;101241.72;;;9.08;100.00
51229;BME280;37304;52.216;6.874;2023-04-25T15:45:32;101249.34;;;9.40;100.00
51229;BME280;37304;52.216;6.874;2023-04-25T15:50:33;101242.47;;;9.27;100.00
51229;BME280;37304;52.216;6.874;2023-04-25T15:55:34;101234.50;;;9.61;100.00
51229;BME280;37304;52.216;6.874;2023-04-25T16:00:35;101245.13;;;9.13;100.00
51229;BME280;37304;52.216;6.874;2023-04-25T16:05:36;101244.28;;;9.14;100.00
51229;BME280;37304;52.216;6.874;2023-04-25T16:10:37;101236.47;;;9.17;100.00
51229;BME280;37304;52.216;6.874;2023-04-25T16:15:37;101239.00;;;9.34;100.00
51229;BME280;37304;52.216;6.874;2023-04-25T16:20:39;101247.72;;;9.16;100.00
51229;BME280;37304;52.216;6.874;2023-04-25T16:25:39;101252.88;;;9.22;100.00
51229;BME280;37304;52.216;6.874;2023-04-25T16:30:42;101244.28;;;9.14;100.00
51229;BME280;37304;52.216;6.874;2023-04-25T16:35:45;101253.88;;;8.85;100.00
51229;BME280;37304;52.216;6.874;2023-04-25T16:40:46;101266.03;;;8.65;100.00
51229;BME280;37304;52.216;6.874;2023-04-25T16:45:46;101274.66;;;8.23;100.00
51229;BME280;37304;52.216;6.874;2023-04-25T16:50:46;101282.41;;;8.08;100.00
51229;BME280;37304;52.216;6.874;2023-04-25T16:55:47;101287.59;;;8.12;100.00
51229;BME280;37304;52.216;6.874;2023-04-25T17:00:47;101284.16;;;8.12;100.00
51229;BME280;37304;52.216;6.874;2023-04-25T17:05:53;101286.72;;;8.13;100.00
51229;BME280;37304;52.216;6.874;2023-04-25T17:10:55;101294.47;;;8.13;100.00
51229;BME280;37304;52.216;6.874;2023-04-25T17:15:56;101281.56;;;8.02;100.00
51229;BME280;37304;52.216;6.874;2023-04-25T17:20:57;101298.78;;;7.90;100.00
51229;BME280;37304;52.216;6.874;2023-04-25T17:25:57;101307.34;;;7.65;100.00
51229;BME280;37304;52.216;6.874;2023-04-25T17:30:58;101321.81;;;7.21;100.00
51229;BME280;37304;52.216;6.874;2023-04-25T17:35:59;101345.03;;;7.09;100.00
51229;BME280;37304;52.216;6.874;2023-04-25T17:40:59;101332.84;;;6.88;100.00
51229;BME280;37304;52.216;6.874;2023-04-25T17:45:59;101342.19;;;6.72;100.00
51229;BME280;37304;52.216;6.874;2023-04-25T17:51:00;101343.03;;;6.69;100.00
51229;BME280;37304;52.216;6.874;2023-04-25T17:56:01;101354.19;;;6.66;100.00
51229;BME280;37304;52.216;6.874;2023-04-25T18:01:02;101357.69;;;6.72;100.00
51229;BME280;37304;52.216;6.874;2023-04-25T18:06:04;101368.03;;;6.70;100.00
51229;BME280;37304;52.216;6.874;2023-04-25T18:11:05;101368.88;;;6.74;100.00
51229;BME280;37304;52.216;6.874;2023-04-25T18:16:06;101370.72;;;6.90;100.00
51229;BME280;37304;52.216;6.874;2023-04-25T18:21:09;101378.47;;;6.85;100.00
51229;BME280;37304;52.216;6.874;2023-04-25T18:26:09;101383.66;;;6.93;100.00
51229;BME280;37304;52.216;6.874;2023-04-25T18:31:11;101380.84;;;6.61;100.00
51229;BME280;37304;52.216;6.874;2023-04-25T18:36:15;101386.91;;;6.63;100.00
51229;BME280;37304;52.216;6.874;2023-04-25T18:41:16;101393.03;;;6.79;100.00
51229;BME280;37304;52.216;6.874;2023-04-25T18:46:19;101385.25;;;6.73;100.00
51229;BME280;37304;52.216;6.874;2023-04-25T18:51:22;101389.53;;;6.70;100.00
51229;BME280;37304;52.216;6.874;2023-04-25T18:56:26;101403.22;;;6.60;100.00
51229;BME280;37304;52.216;6.874;2023-04-25T19:01:27;101404.06;;;6.56;100.00
51229;BME280;37304;52.216;6.874;2023-04-25T19:06:27;101412.53;;;6.43;100.00
51229;BME280;37304;52.216;6.874;2023-04-25T19:11:28;101417.66;;;6.36;100.00
51229;BME280;37304;52.216;6.874;2023-04-25T19:16:29;101427.84;;;6.27;100.00
51229;BME280;37304;52.216;6.874;2023-04-25T19:21:36;101422.53;;;6.10;100.00
51229;BME280;37304;52.216;6.874;2023-04-25T19:26:38;101433.47;;;5.93;100.00
51229;BME280;37304;52.216;6.874;2023-04-25T19:31:40;101433.34;;;5.84;100.00
51229;BME280;37304;52.216;6.874;2023-04-25T19:36:42;101432.44;;;5.77;100.00
51229;BME280;37304;52.216;6.874;2023-04-25T19:41:50;101427.16;;;5.68;100.00
51229;BME280;37304;52.216;6.874;2023-04-25T19:46:50;101433.03;;;5.59;100.00
51229;BME280;37304;52.216;6.874;2023-04-25T19:51:51;101427.75;;;5.50;100.00
51229;BME280;37304;52.216;6.874;2023-04-25T19:56:51;101438.88;;;5.47;100.00
51229;BME280;37304;52.216;6.874;2023-04-25T20:01:52;101437.94;;;5.41;100.00
51229;BME280;37304;52.216;6.874;2023-04-25T20:06:52;101445.56;;;5.33;100.00
51229;BME280;37304;52.216;6.874;2023-04-25T20:11:53;101450.53;;;5.22;100.00
51229;BME280;37304;52.216;6.874;2023-04-25T20:16:54;101453.94;;;5.19;100.00
51229;BME280;37304;52.216;6.874;2023-04-25T20:21:56;101456.44;;;5.13;100.00
51229;BME280;37304;52.216;6.874;2023-04-25T20:26:56;101464.09;;;5.08;100.00
51229;BME280;37304;52.216;6.874;2023-04-25T20:31:56;101465.66;;;4.99;100.00
51229;BME280;37304;52.216;6.874;2023-04-25T20:36:57;101450.03;;;4.89;100.00
51229;BME280;37304;52.216;6.874;2023-04-25T20:41:58;101466.25;;;4.84;100.00
51229;BME280;37304;52.216;6.874;2023-04-25T20:46:58;101460.13;;;4.77;100.00
51229;BME280;37304;52.216;6.874;2023-04-25T20:51:59;101464.28;;;4.69;100.00
51229;BME280;37304;52.216;6.874;2023-04-25T20:57:00;101463.31;;;4.63;100.00
51229;BME280;37304;52.216;6.874;2023-04-25T21:02:01;101460.69;;;4.60;100.00
51229;BME280;37304;52.216;6.874;2023-04-25T21:07:01;101463.22;;;4.57;100.00
51229;BME280;37304;52.216;6.874;2023-04-25T21:12:05;101474.25;;;4.51;100.00
51229;BME280;37304;52.216;6.874;2023-04-25T21:17:06;101470.69;;;4.43;100.00
51229;BME280;37304;52.216;6.874;2023-04-25T21:22:06;101466.44;;;4.45;100.00
51229;BME280;37304;52.216;6.874;2023-04-25T21:27:06;101470.69;;;4.43;100.00
51229;BME280;37304;52.216;6.874;2023-04-25T21:32:07;101481.13;;;4.51;100.00
51229;BME280;37304;52.216;6.874;2023-04-25T21:37:07;101477.72;;;4.54;100.00
51229;BME280;37304;52.216;6.874;2023-04-25T21:42:08;101470.16;;;4.61;100.00
51229;BME280;37304;52.216;6.874;2023-04-25T21:47:09;101479.63;;;4.62;100.00
51229;BME280;37304;52.216;6.874;2023-04-25T21:52:10;101478.72;;;4.62;100.00
51229;BME280;37304;52.216;6.874;2023-04-25T21:57:10;101484.66;;;4.58;100.00
51229;BME280;37304;52.216;6.874;2023-04-25T22:02:11;101490.31;;;4.38;100.00
51229;BME280;37304;52.216;6.874;2023-04-25T22:07:12;101496.22;;;4.32;100.00
51229;BME280;37304;52.216;6.874;2023-04-25T22:12:12;101497.75;;;4.24;100.00
51229;BME280;37304;52.216;6.874;2023-04-25T22:17:14;101502.66;;;4.12;100.00
51229;BME280;37304;52.216;6.874;2023-04-25T22:22:14;101507.72;;;4.07;100.00
51229;BME280;37304;52.216;6.874;2023-04-25T22:27:15;101505.81;;;3.98;100.00
51229;BME280;37304;52.216;6.874;2023-04-25T22:32:16;101513.25;;;3.86;100.00
51229;BME280;37304;52.216;6.874;2023-04-25T22:37:16;101513.09;;;3.78;100.00
51229;BME280;37304;52.216;6.874;2023-04-25T22:42:16;101512.03;;;3.70;100.00
51229;BME280;37304;52.216;6.874;2023-04-25T22:47:17;101521.97;;;3.54;100.00
51229;BME280;37304;52.216;6.874;2023-04-25T22:52:17;101526.16;;;3.49;100.00
51229;BME280;37304;52.216;6.874;2023-04-25T22:57:17;101534.41;;;3.37;100.00
51229;BME280;37304;52.216;6.874;2023-04-25T23:02:18;101529.34;;;3.40;100.00
51229;BME280;37304;52.216;6.874;2023-04-25T23:07:19;101536.00;;;3.32;100.00
51229;BME280;37304;52.216;6.874;2023-04-25T23:12:19;101534.13;;;3.25;100.00
51229;BME280;37304;52.216;6.874;2023-04-25T23:17:20;101529.69;;;3.19;100.00
51229;BME280;37304;52.216;6.874;2023-04-25T23:22:20;101525.09;;;3.05;100.00
51229;BME280;37304;52.216;6.874;2023-04-25T23:27:20;101525.91;;;3.04;100.00
51229;BME280;37304;52.216;6.874;2023-04-25T23:32:21;101529.22;;;2.99;100.00
51229;BME280;37304;52.216;6.874;2023-04-25T23:37:22;101541.25;;;3.01;100.00
51229;BME280;37304;52.216;6.874;2023-04-25T23:42:22;101528.94;;;2.88;100.00
51229;BME280;37304;52.216;6.874;2023-04-25T23:47:23;101538.22;;;2.84;100.00
51229;BME280;37304;52.216;6.874;2023-04-25T23:52:23;101541.53;;;2.80;100.00
51229;BME280;37304;52.216;6.874;2023-04-25T23:57:23;101539.47;;;2.67;100.00
